sensor_id;sensor_type;location;lat;lon;timestamp;temperature;humidity
3976;DHT22;2002;48.812;9.180;2023-02-01T00:01:51;16.10;1.00
3976;DHT22;2002;48.812;9.180;2023-02-01T00:04:16;16.00;1.00
3976;DHT22;2002;48.812;9.180;2023-02-01T00:06:42;16.00;1.00
3976;DHT22;2002;48.812;9.180;2023-02-01T00:09:07;16.00;1.00
3976;DHT22;2002;48.812;9.180;2023-02-01T00:11:33;15.90;1.00
3976;DHT22;2002;48.812;9.180;2023-02-01T00:13:59;15.90;1.00
3976;DHT22;2002;48.812;9.180;2023-02-01T00:16:27;15.90;1.00
3976;DHT22;2002;48.812;9.180;2023-02-01T00:19:03;15.80;1.00
3976;DHT22;2002;48.812;9.180;2023-02-01T00:21:30;15.80;1.00
3976;DHT22;2002;48.812;9.180;2023-02-01T00:23:56;15.80;1.00
3976;DHT22;2002;48.812;9.180;2023-02-01T00:26:43;15.80;1.00
3976;DHT22;2002;48.812;9.180;2023-02-01T00:29:14;15.80;1.00
3976;DHT22;2002;48.812;9.180;2023-02-01T00:31:40;15.70;1.00
3976;DHT22;2002;48.812;9.180;2023-02-01T00:34:06;15.70;1.00
3976;DHT22;2002;48.812;9.180;2023-02-01T00:36:32;15.70;1.00
3976;DHT22;2002;48.812;9.180;2023-02-01T00:38:57;15.70;1.00
3976;DHT22;2002;48.812;9.180;2023-02-01T00:41:23;15.60;1.00
3976;DHT22;2002;48.812;9.180;2023-02-01T00:43:50;15.60;1.00
3976;DHT22;2002;48.812;9.180;2023-02-01T00:46:17;15.60;1.00
3976;DHT22;2002;48.812;9.180;2023-02-01T00:48:43;15.60;1.00
3976;DHT22;2002;48.812;9.180;2023-02-01T00:51:12;15.60;1.00
3976;DHT22;2002;48.812;9.180;2023-02-01T00:53:38;15.80;1.00
3976;DHT22;2002;48.812;9.180;2023-02-01T00:56:04;16.00;1.00
3976;DHT22;2002;48.812;9.180;2023-02-01T00:58:31;16.10;1.00
3976;DHT22;2002;48.812;9.180;2023-02-01T01:01:11;16.20;1.00
3976;DHT22;2002;48.812;9.180;2023-02-01T01:03:43;16.30;1.00
3976;DHT22;2002;48.812;9.180;2023-02-01T01:06:17;16.30;1.00
3976;DHT22;2002;48.812;9.180;2023-02-01T01:08:43;16.30;1.00
3976;DHT22;2002;48.812;9.180;2023-02-01T01:11:15;16.20;1.00
3976;DHT22;2002;48.812;9.180;2023-02-01T01:13:41;16.20;1.00
3976;DHT22;2002;48.812;9.180;2023-02-01T01:16:08;16.20;1.00
3976;DHT22;2002;48.812;9.180;2023-02-01T01:18:35;16.10;1.00
3976;DHT22;2002;48.812;9.180;2023-02-01T01:21:01;16.10;1.00
3976;DHT22;2002;48.812;9.180;2023-02-01T01:23:27;16.00;1.00
3976;DHT22;2002;48.812;9.180;2023-02-01T01:25:53;16.00;1.00
3976;DHT22;2002;48.812;9.180;2023-02-01T01:28:19;16.00;1.00
3976;DHT22;2002;48.812;9.180;2023-02-01T01:30:44;15.90;1.00
3976;DHT22;2002;48.812;9.180;2023-02-01T01:33:10;15.90;1.00
3976;DHT22;2002;48.812;9.180;2023-02-01T01:35:35;15.90;1.00
3976;DHT22;2002;48.812;9.180;2023-02-01T01:38:02;15.80;1.00
3976;DHT22;2002;48.812;9.180;2023-02-01T01:40:29;15.80;1.00
3976;DHT22;2002;48.812;9.180;2023-02-01T01:42:55;15.80;1.00
3976;DHT22;2002;48.812;9.180;2023-02-01T01:45:30;15.70;1.00
3976;DHT22;2002;48.812;9.180;2023-02-01T01:47:58;15.70;1.00
3976;DHT22;2002;48.812;9.180;2023-02-01T01:50:28;15.70;1.00
3976;DHT22;2002;48.812;9.180;2023-02-01T01:52:56;15.70;1.00
3976;DHT22;2002;48.812;9.180;2023-02-01T01:55:24;15.70;1.00
3976;DHT22;2002;48.812;9.180;2023-02-01T01:58:14;15.70;1.00
3976;DHT22;2002;48.812;9.180;2023-02-01T02:00:41;15.60;1.00
3976;DHT22;2002;48.812;9.180;2023-02-01T02:03:28;15.60;1.00
3976;DHT22;2002;48.812;9.180;2023-02-01T02:05:58;15.60;1.00
3976;DHT22;2002;48.812;9.180;2023-02-01T02:08:27;15.60;1.00
3976;DHT22;2002;48.812;9.180;2023-02-01T02:10:53;15.50;1.00
3976;DHT22;2002;48.812;9.180;2023-02-01T02:13:34;15.60;1.00
3976;DHT22;2002;48.812;9.180;2023-02-01T02:16:05;15.70;1.00
3976;DHT22;2002;48.812;9.180;2023-02-01T02:25:02;16.20;1.00
3976;DHT22;2002;48.812;9.180;2023-02-01T02:27:46;16.20;1.00
3976;DHT22;2002;48.812;9.180;2023-02-01T02:30:50;16.20;1.00
3976;DHT22;2002;48.812;9.180;2023-02-01T02:44:53;16.00;1.00
3976;DHT22;2002;48.812;9.180;2023-02-01T02:48:06;15.90;1.00
3976;DHT22;2002;48.812;9.180;2023-02-01T02:50:42;15.90;1.00
3976;DHT22;2002;48.812;9.180;2023-02-01T02:53:33;15.80;1.00
3976;DHT22;2002;48.812;9.180;2023-02-01T02:56:21;15.80;1.00
3976;DHT22;2002;48.812;9.180;2023-02-01T02:59:08;15.70;1.00
3976;DHT22;2002;48.812;9.180;2023-02-01T03:01:53;15.70;1.00
3976;DHT22;2002;48.812;9.180;2023-02-01T03:04:37;15.70;1.00
3976;DHT22;2002;48.812;9.180;2023-02-01T03:10:05;15.60;1.00
3976;DHT22;2002;48.812;9.180;2023-02-01T03:12:36;15.60;1.00
3976;DHT22;2002;48.812;9.180;2023-02-01T03:15:31;15.60;1.00
3976;DHT22;2002;48.812;9.180;2023-02-01T03:18:01;15.60;1.00
3976;DHT22;2002;48.812;9.180;2023-02-01T03:20:30;15.60;1.00
3976;DHT22;2002;48.812;9.180;2023-02-01T03:22:58;15.60;1.00
3976;DHT22;2002;48.812;9.180;2023-02-01T03:25:30;15.50;1.00
3976;DHT22;2002;48.812;9.180;2023-02-01T03:28:06;15.60;1.00
3976;DHT22;2002;48.812;9.180;2023-02-01T03:30:43;15.80;1.00
3976;DHT22;2002;48.812;9.180;2023-02-01T03:33:13;16.00;1.00
3976;DHT22;2002;48.812;9.180;2023-02-01T03:36:25;16.10;1.00
3976;DHT22;2002;48.812;9.180;2023-02-01T03:38:49;16.30;1.00
3976;DHT22;2002;48.812;9.180;2023-02-01T03:41:22;16.30;1.00
3976;DHT22;2002;48.812;9.180;2023-02-01T03:44:06;16.30;1.00
3976;DHT22;2002;48.812;9.180;2023-02-01T03:46:40;16.20;1.00
3976;DHT22;2002;48.812;9.180;2023-02-01T03:49:09;16.20;1.00
3976;DHT22;2002;48.812;9.180;2023-02-01T03:51:40;16.20;1.00
3976;DHT22;2002;48.812;9.180;2023-02-01T03:54:09;16.20;1.00
3976;DHT22;2002;48.812;9.180;2023-02-01T03:56:37;16.10;1.00
3976;DHT22;2002;48.812;9.180;2023-02-01T03:59:03;16.10;1.00
3976;DHT22;2002;48.812;9.180;2023-02-01T04:01:30;16.00;1.00
3976;DHT22;2002;48.812;9.180;2023-02-01T04:03:57;16.00;1.00
3976;DHT22;2002;48.812;9.180;2023-02-01T04:06:23;15.90;1.00
3976;DHT22;2002;48.812;9.180;2023-02-01T04:08:50;15.90;1.00
3976;DHT22;2002;48.812;9.180;2023-02-01T04:11:16;15.80;1.00
3976;DHT22;2002;48.812;9.180;2023-02-01T04:13:43;15.80;1.00
3976;DHT22;2002;48.812;9.180;2023-02-01T04:16:09;15.80;1.00
3976;DHT22;2002;48.812;9.180;2023-02-01T04:18:34;15.80;1.00
3976;DHT22;2002;48.812;9.180;2023-02-01T04:21:00;15.70;1.00
3976;DHT22;2002;48.812;9.180;2023-02-01T04:23:27;15.70;1.00
3976;DHT22;2002;48.812;9.180;2023-02-01T04:25:53;15.70;1.00
3976;DHT22;2002;48.812;9.180;2023-02-01T04:28:19;15.70;1.00
3976;DHT22;2002;48.812;9.180;2023-02-01T04:30:46;15.60;1.00
3976;DHT22;2002;48.812;9.180;2023-02-01T04:33:11;15.60;1.00
3976;DHT22;2002;48.812;9.180;2023-02-01T04:35:39;15.60;1.00
3976;DHT22;2002;48.812;9.180;2023-02-01T04:38:05;15.60;1.00
3976;DHT22;2002;48.812;9.180;2023-02-01T04:40:32;15.60;1.00
3976;DHT22;2002;48.812;9.180;2023-02-01T04:42:58;15.60;1.00
3976;DHT22;2002;48.812;9.180;2023-02-01T04:45:23;15.60;1.00
3976;DHT22;2002;48.812;9.180;2023-02-01T04:47:49;15.50;1.00
3976;DHT22;2002;48.812;9.180;2023-02-01T04:50:15;15.50;1.00
3976;DHT22;2002;48.812;9.180;2023-02-01T04:52:40;15.70;1.00
3976;DHT22;2002;48.812;9.180;2023-02-01T04:55:07;16.00;1.00
3976;DHT22;2002;48.812;9.180;2023-02-01T04:57:32;16.20;1.00
3976;DHT22;2002;48.812;9.180;2023-02-01T04:59:58;16.40;1.00
3976;DHT22;2002;48.812;9.180;2023-02-01T05:02:24;16.40;1.00
3976;DHT22;2002;48.812;9.180;2023-02-01T05:04:49;16.50;1.00
3976;DHT22;2002;48.812;9.180;2023-02-01T05:07:16;16.40;1.00
3976;DHT22;2002;48.812;9.180;2023-02-01T05:09:41;16.30;1.00
3976;DHT22;2002;48.812;9.180;2023-02-01T05:12:08;16.30;1.00
3976;DHT22;2002;48.812;9.180;2023-02-01T05:14:53;16.30;1.00
3976;DHT22;2002;48.812;9.180;2023-02-01T05:17:18;16.20;1.00
3976;DHT22;2002;48.812;9.180;2023-02-01T05:19:44;16.20;1.00
3976;DHT22;2002;48.812;9.180;2023-02-01T05:22:09;16.20;1.00
3976;DHT22;2002;48.812;9.180;2023-02-01T05:24:35;16.10;1.00
3976;DHT22;2002;48.812;9.180;2023-02-01T05:27:00;16.10;1.00
3976;DHT22;2002;48.812;9.180;2023-02-01T05:29:26;16.10;1.00
3976;DHT22;2002;48.812;9.180;2023-02-01T05:31:52;16.00;1.00
3976;DHT22;2002;48.812;9.180;2023-02-01T05:34:17;16.00;1.00
3976;DHT22;2002;48.812;9.180;2023-02-01T05:36:43;16.10;1.00
3976;DHT22;2002;48.812;9.180;2023-02-01T05:39:08;16.00;1.00
3976;DHT22;2002;48.812;9.180;2023-02-01T05:41:35;15.90;1.00
3976;DHT22;2002;48.812;9.180;2023-02-01T05:44:01;15.90;1.00
3976;DHT22;2002;48.812;9.180;2023-02-01T05:46:27;15.90;1.00
3976;DHT22;2002;48.812;9.180;2023-02-01T05:48:52;15.90;1.00
3976;DHT22;2002;48.812;9.180;2023-02-01T05:51:18;15.90;1.00
3976;DHT22;2002;48.812;9.180;2023-02-01T05:53:43;15.90;1.00
3976;DHT22;2002;48.812;9.180;2023-02-01T05:56:09;15.80;1.00
3976;DHT22;2002;48.812;9.180;2023-02-01T05:58:34;15.80;1.00
3976;DHT22;2002;48.812;9.180;2023-02-01T06:01:01;15.80;1.00
3976;DHT22;2002;48.812;9.180;2023-02-01T06:03:27;15.90;1.00
3976;DHT22;2002;48.812;9.180;2023-02-01T06:05:53;15.80;1.00
3976;DHT22;2002;48.812;9.180;2023-02-01T06:08:18;15.80;1.00
3976;DHT22;2002;48.812;9.180;2023-02-01T06:10:44;15.80;1.00
3976;DHT22;2002;48.812;9.180;2023-02-01T06:13:10;15.80;1.00
3976;DHT22;2002;48.812;9.180;2023-02-01T06:15:35;15.80;1.00
3976;DHT22;2002;48.812;9.180;2023-02-01T06:18:03;15.80;1.00
3976;DHT22;2002;48.812;9.180;2023-02-01T06:20:28;16.00;1.00
3976;DHT22;2002;48.812;9.180;2023-02-01T06:22:54;16.30;1.00
3976;DHT22;2002;48.812;9.180;2023-02-01T06:25:19;16.60;1.00
3976;DHT22;2002;48.812;9.180;2023-02-01T06:27:46;16.80;1.00
3976;DHT22;2002;48.812;9.180;2023-02-01T06:30:12;16.90;1.00
3976;DHT22;2002;48.812;9.180;2023-02-01T06:32:41;16.80;1.00
3976;DHT22;2002;48.812;9.180;2023-02-01T06:35:10;16.70;1.00
3976;DHT22;2002;48.812;9.180;2023-02-01T06:37:41;16.60;1.00
3976;DHT22;2002;48.812;9.180;2023-02-01T06:40:07;16.60;1.00
3976;DHT22;2002;48.812;9.180;2023-02-01T06:42:34;16.50;1.00
3976;DHT22;2002;48.812;9.180;2023-02-01T06:44:59;16.40;1.00
3976;DHT22;2002;48.812;9.180;2023-02-01T06:47:25;16.30;1.00
3976;DHT22;2002;48.812;9.180;2023-02-01T06:49:50;16.30;1.00
3976;DHT22;2002;48.812;9.180;2023-02-01T06:52:16;16.20;1.00
3976;DHT22;2002;48.812;9.180;2023-02-01T06:54:41;16.20;1.00
3976;DHT22;2002;48.812;9.180;2023-02-01T06:57:07;16.10;1.00
3976;DHT22;2002;48.812;9.180;2023-02-01T06:59:32;16.10;1.00
3976;DHT22;2002;48.812;9.180;2023-02-01T07:01:58;16.00;1.00
3976;DHT22;2002;48.812;9.180;2023-02-01T07:04:23;16.00;1.00
3976;DHT22;2002;48.812;9.180;2023-02-01T07:06:49;16.00;1.00
3976;DHT22;2002;48.812;9.180;2023-02-01T07:09:15;16.00;1.00
3976;DHT22;2002;48.812;9.180;2023-02-01T07:11:41;15.90;1.00
3976;DHT22;2002;48.812;9.180;2023-02-01T07:14:11;15.90;1.00
3976;DHT22;2002;48.812;9.180;2023-02-01T07:16:37;15.90;1.00
3976;DHT22;2002;48.812;9.180;2023-02-01T07:19:03;15.90;1.00
3976;DHT22;2002;48.812;9.180;2023-02-01T07:21:28;15.90;1.00
3976;DHT22;2002;48.812;9.180;2023-02-01T07:23:54;15.80;1.00
3976;DHT22;2002;48.812;9.180;2023-02-01T07:26:20;15.90;1.00
3976;DHT22;2002;48.812;9.180;2023-02-01T07:28:46;15.80;1.00
3976;DHT22;2002;48.812;9.180;2023-02-01T07:31:17;15.80;1.00
3976;DHT22;2002;48.812;9.180;2023-02-01T07:33:44;15.80;1.00
3976;DHT22;2002;48.812;9.180;2023-02-01T07:36:15;15.80;1.00
3976;DHT22;2002;48.812;9.180;2023-02-01T07:38:41;15.80;1.00
3976;DHT22;2002;48.812;9.180;2023-02-01T07:41:07;15.80;1.00
3976;DHT22;2002;48.812;9.180;2023-02-01T07:43:33;15.80;1.00
3976;DHT22;2002;48.812;9.180;2023-02-01T07:46:00;15.80;1.00
3976;DHT22;2002;48.812;9.180;2023-02-01T07:48:27;15.80;1.00
3976;DHT22;2002;48.812;9.180;2023-02-01T07:51:19;15.80;1.00
3976;DHT22;2002;48.812;9.180;2023-02-01T07:53:45;15.80;1.00
3976;DHT22;2002;48.812;9.180;2023-02-01T07:56:14;15.70;1.00
3976;DHT22;2002;48.812;9.180;2023-02-01T07:58:40;15.70;1.00
3976;DHT22;2002;48.812;9.180;2023-02-01T08:01:05;15.70;1.00
3976;DHT22;2002;48.812;9.180;2023-02-01T08:06:20;16.20;1.00
3976;DHT22;2002;48.812;9.180;2023-02-01T08:08:47;16.60;1.00
3976;DHT22;2002;48.812;9.180;2023-02-01T08:11:14;16.90;1.00
3976;DHT22;2002;48.812;9.180;2023-02-01T08:13:40;16.90;1.00
3976;DHT22;2002;48.812;9.180;2023-02-01T08:16:07;16.80;1.00
3976;DHT22;2002;48.812;9.180;2023-02-01T08:18:34;16.80;1.00
3976;DHT22;2002;48.812;9.180;2023-02-01T08:21:27;16.70;1.00
3976;DHT22;2002;48.812;9.180;2023-02-01T08:24:03;16.60;1.00
3976;DHT22;2002;48.812;9.180;2023-02-01T08:26:28;16.50;1.00
3976;DHT22;2002;48.812;9.180;2023-02-01T08:28:57;16.50;1.00
3976;DHT22;2002;48.812;9.180;2023-02-01T08:31:25;16.40;1.00
3976;DHT22;2002;48.812;9.180;2023-02-01T08:33:54;16.30;1.00
3976;DHT22;2002;48.812;9.180;2023-02-01T08:36:23;16.20;1.00
3976;DHT22;2002;48.812;9.180;2023-02-01T08:38:49;16.20;1.00
3976;DHT22;2002;48.812;9.180;2023-02-01T08:41:20;16.10;1.00
3976;DHT22;2002;48.812;9.180;2023-02-01T08:43:46;16.10;1.00
3976;DHT22;2002;48.812;9.180;2023-02-01T08:46:13;16.00;1.00
3976;DHT22;2002;48.812;9.180;2023-02-01T08:48:39;16.00;1.00
3976;DHT22;2002;48.812;9.180;2023-02-01T08:51:10;16.00;1.00
3976;DHT22;2002;48.812;9.180;2023-02-01T08:53:37;16.00;1.00
3976;DHT22;2002;48.812;9.180;2023-02-01T08:56:03;16.00;1.00
3976;DHT22;2002;48.812;9.180;2023-02-01T08:58:29;15.90;1.00
3976;DHT22;2002;48.812;9.180;2023-02-01T09:00:55;15.90;1.00
3976;DHT22;2002;48.812;9.180;2023-02-01T09:03:21;15.90;1.00
3976;DHT22;2002;48.812;9.180;2023-02-01T09:05:47;15.90;1.00
3976;DHT22;2002;48.812;9.180;2023-02-01T09:08:13;15.90;1.00
3976;DHT22;2002;48.812;9.180;2023-02-01T09:10:41;15.90;1.00
3976;DHT22;2002;48.812;9.180;2023-02-01T09:13:07;15.90;1.00
3976;DHT22;2002;48.812;9.180;2023-02-01T09:15:33;15.90;1.00
3976;DHT22;2002;48.812;9.180;2023-02-01T09:17:59;15.80;1.00
3976;DHT22;2002;48.812;9.180;2023-02-01T09:20:24;15.80;1.00
3976;DHT22;2002;48.812;9.180;2023-02-01T09:22:51;15.80;1.00
3976;DHT22;2002;48.812;9.180;2023-02-01T09:25:17;15.90;1.00
3976;DHT22;2002;48.812;9.180;2023-02-01T09:27:42;15.80;1.00
3976;DHT22;2002;48.812;9.180;2023-02-01T09:30:09;15.80;1.00
3976;DHT22;2002;48.812;9.180;2023-02-01T09:32:35;15.80;1.00
3976;DHT22;2002;48.812;9.180;2023-02-01T09:35:01;15.80;1.00
3976;DHT22;2002;48.812;9.180;2023-02-01T09:37:27;15.80;1.00
3976;DHT22;2002;48.812;9.180;2023-02-01T09:39:52;15.80;1.00
3976;DHT22;2002;48.812;9.180;2023-02-01T09:45:23;15.80;1.00
3976;DHT22;2002;48.812;9.180;2023-02-01T09:47:55;15.70;1.00
3976;DHT22;2002;48.812;9.180;2023-02-01T09:50:35;15.90;1.00
3976;DHT22;2002;48.812;9.180;2023-02-01T09:55:42;16.70;1.00
3976;DHT22;2002;48.812;9.180;2023-02-01T09:58:13;16.90;1.00
3976;DHT22;2002;48.812;9.180;2023-02-01T10:00:40;16.80;1.00
3976;DHT22;2002;48.812;9.180;2023-02-01T10:03:12;16.80;1.00
3976;DHT22;2002;48.812;9.180;2023-02-01T10:09:14;16.60;1.00
3976;DHT22;2002;48.812;9.180;2023-02-01T10:17:06;16.40;1.00
3976;DHT22;2002;48.812;9.180;2023-02-01T10:19:56;16.30;1.00
3976;DHT22;2002;48.812;9.180;2023-02-01T10:22:34;16.20;1.00
3976;DHT22;2002;48.812;9.180;2023-02-01T10:25:05;16.20;1.00
3976;DHT22;2002;48.812;9.180;2023-02-01T10:27:37;16.10;1.00
3976;DHT22;2002;48.812;9.180;2023-02-01T10:32:43;16.00;1.00
3976;DHT22;2002;48.812;9.180;2023-02-01T10:35:23;16.00;1.00
3976;DHT22;2002;48.812;9.180;2023-02-01T10:37:52;16.00;1.00
3976;DHT22;2002;48.812;9.180;2023-02-01T10:40:26;16.00;1.00
3976;DHT22;2002;48.812;9.180;2023-02-01T10:42:54;15.90;1.00
3976;DHT22;2002;48.812;9.180;2023-02-01T10:45:22;15.90;1.00
3976;DHT22;2002;48.812;9.180;2023-02-01T10:47:50;15.90;1.00
3976;DHT22;2002;48.812;9.180;2023-02-01T10:50:38;15.90;1.00
3976;DHT22;2002;48.812;9.180;2023-02-01T10:53:17;15.90;1.00
3976;DHT22;2002;48.812;9.180;2023-02-01T10:55:50;15.90;1.00
3976;DHT22;2002;48.812;9.180;2023-02-01T10:58:27;15.90;1.00
3976;DHT22;2002;48.812;9.180;2023-02-01T11:00:59;15.90;1.00
3976;DHT22;2002;48.812;9.180;2023-02-01T11:03:36;15.80;1.00
3976;DHT22;2002;48.812;9.180;2023-02-01T11:08:46;15.80;1.00
3976;DHT22;2002;48.812;9.180;2023-02-01T11:11:12;15.80;1.00
3976;DHT22;2002;48.812;9.180;2023-02-01T11:13:39;15.80;1.00
3976;DHT22;2002;48.812;9.180;2023-02-01T11:16:06;15.80;1.00
3976;DHT22;2002;48.812;9.180;2023-02-01T11:18:36;15.80;1.00
3976;DHT22;2002;48.812;9.180;2023-02-01T11:21:03;15.80;1.00
3976;DHT22;2002;48.812;9.180;2023-02-01T11:23:31;15.70;1.00
3976;DHT22;2002;48.812;9.180;2023-02-01T11:26:29;15.80;1.00
3976;DHT22;2002;48.812;9.180;2023-02-01T11:29:18;15.80;1.00
3976;DHT22;2002;48.812;9.180;2023-02-01T11:31:44;15.80;1.00
3976;DHT22;2002;48.812;9.180;2023-02-01T11:34:22;15.80;1.00
3976;DHT22;2002;48.812;9.180;2023-02-01T11:36:50;16.00;1.00
3976;DHT22;2002;48.812;9.180;2023-02-01T11:39:25;16.40;1.00
3976;DHT22;2002;48.812;9.180;2023-02-01T11:44:40;16.90;1.00
3976;DHT22;2002;48.812;9.180;2023-02-01T11:47:26;16.90;1.00
3976;DHT22;2002;48.812;9.180;2023-02-01T11:50:03;16.90;1.00
3976;DHT22;2002;48.812;9.180;2023-02-01T11:52:37;16.80;1.00
3976;DHT22;2002;48.812;9.180;2023-02-01T11:55:46;16.70;1.00
3976;DHT22;2002;48.812;9.180;2023-02-01T11:58:55;16.60;1.00
3976;DHT22;2002;48.812;9.180;2023-02-01T12:07:06;16.30;1.00
3976;DHT22;2002;48.812;9.180;2023-02-01T12:12:58;16.20;1.00
3976;DHT22;2002;48.812;9.180;2023-02-01T12:32:23;16.00;1.00
3976;DHT22;2002;48.812;9.180;2023-02-01T12:40:49;15.90;1.00
3976;DHT22;2002;48.812;9.180;2023-02-01T12:43:23;15.90;1.00
3976;DHT22;2002;48.812;9.180;2023-02-01T12:45:59;15.90;1.00
3976;DHT22;2002;48.812;9.180;2023-02-01T12:51:26;15.80;1.00
3976;DHT22;2002;48.812;9.180;2023-02-01T12:56:57;15.90;1.00
3976;DHT22;2002;48.812;9.180;2023-02-01T12:59:36;15.90;1.00
3976;DHT22;2002;48.812;9.180;2023-02-01T13:05:16;15.80;1.00
3976;DHT22;2002;48.812;9.180;2023-02-01T13:08:06;15.80;1.00
3976;DHT22;2002;48.812;9.180;2023-02-01T13:10:50;15.80;1.00
3976;DHT22;2002;48.812;9.180;2023-02-01T13:13:19;15.80;1.00
3976;DHT22;2002;48.812;9.180;2023-02-01T13:16:14;15.80;1.00
3976;DHT22;2002;48.812;9.180;2023-02-01T13:18:43;15.80;1.00
3976;DHT22;2002;48.812;9.180;2023-02-01T13:21:17;15.90;1.00
3976;DHT22;2002;48.812;9.180;2023-02-01T13:23:47;16.20;1.00
3976;DHT22;2002;48.812;9.180;2023-02-01T13:26:13;16.60;1.00
3976;DHT22;2002;48.812;9.180;2023-02-01T13:28:59;16.80;1.00
3976;DHT22;2002;48.812;9.180;2023-02-01T13:31:35;16.90;1.00
3976;DHT22;2002;48.812;9.180;2023-02-01T13:39:47;16.70;1.00
3976;DHT22;2002;48.812;9.180;2023-02-01T13:42:29;16.70;1.00
3976;DHT22;2002;48.812;9.180;2023-02-01T13:45:17;16.60;1.00
3976;DHT22;2002;48.812;9.180;2023-02-01T13:47:46;16.50;1.00
3976;DHT22;2002;48.812;9.180;2023-02-01T13:53:11;16.40;1.00
3976;DHT22;2002;48.812;9.180;2023-02-01T13:55:41;16.30;1.00
3976;DHT22;2002;48.812;9.180;2023-02-01T13:58:19;16.20;1.00
3976;DHT22;2002;48.812;9.180;2023-02-01T14:00:47;16.20;1.00
3976;DHT22;2002;48.812;9.180;2023-02-01T14:03:45;16.10;1.00
3976;DHT22;2002;48.812;9.180;2023-02-01T14:06:18;16.10;1.00
3976;DHT22;2002;48.812;9.180;2023-02-01T14:09:11;16.00;1.00
3976;DHT22;2002;48.812;9.180;2023-02-01T14:11:52;16.00;1.00
3976;DHT22;2002;48.812;9.180;2023-02-01T14:19:27;16.00;1.00
3976;DHT22;2002;48.812;9.180;2023-02-01T14:21:54;15.90;1.00
3976;DHT22;2002;48.812;9.180;2023-02-01T14:26:52;16.00;1.00
3976;DHT22;2002;48.812;9.180;2023-02-01T14:29:34;15.90;1.00
3976;DHT22;2002;48.812;9.180;2023-02-01T14:32:30;15.90;1.00
3976;DHT22;2002;48.812;9.180;2023-02-01T14:34:59;15.90;1.00
3976;DHT22;2002;48.812;9.180;2023-02-01T14:37:29;15.90;1.00
3976;DHT22;2002;48.812;9.180;2023-02-01T14:40:04;15.90;1.00
3976;DHT22;2002;48.812;9.180;2023-02-01T14:42:46;15.90;1.00
3976;DHT22;2002;48.812;9.180;2023-02-01T14:47:45;15.90;1.00
3976;DHT22;2002;48.812;9.180;2023-02-01T14:55:52;15.80;1.00
3976;DHT22;2002;48.812;9.180;2023-02-01T14:58:40;15.80;1.00
3976;DHT22;2002;48.812;9.180;2023-02-01T15:01:17;15.80;1.00
3976;DHT22;2002;48.812;9.180;2023-02-01T15:04:12;15.80;1.00
3976;DHT22;2002;48.812;9.180;2023-02-01T15:06:49;15.80;1.00
3976;DHT22;2002;48.812;9.180;2023-02-01T15:09:38;15.90;1.00
3976;DHT22;2002;48.812;9.180;2023-02-01T15:14:39;16.80;1.00
3976;DHT22;2002;48.812;9.180;2023-02-01T15:17:28;17.00;1.00
3976;DHT22;2002;48.812;9.180;2023-02-01T15:20:03;17.00;1.00
3976;DHT22;2002;48.812;9.180;2023-02-01T15:22:30;17.00;1.00
3976;DHT22;2002;48.812;9.180;2023-02-01T15:25:00;16.90;1.00
3976;DHT22;2002;48.812;9.180;2023-02-01T15:27:26;16.90;1.00
3976;DHT22;2002;48.812;9.180;2023-02-01T15:29:52;16.80;1.00
3976;DHT22;2002;48.812;9.180;2023-02-01T15:32:30;16.70;1.00
3976;DHT22;2002;48.812;9.180;2023-02-01T15:34:57;16.60;1.00
3976;DHT22;2002;48.812;9.180;2023-02-01T15:37:23;16.50;1.00
3976;DHT22;2002;48.812;9.180;2023-02-01T15:40:05;16.50;1.00
3976;DHT22;2002;48.812;9.180;2023-02-01T15:42:53;16.50;1.00
3976;DHT22;2002;48.812;9.180;2023-02-01T15:45:21;16.50;1.00
3976;DHT22;2002;48.812;9.180;2023-02-01T15:47:50;16.40;1.00
3976;DHT22;2002;48.812;9.180;2023-02-01T15:50:18;16.30;1.00
3976;DHT22;2002;48.812;9.180;2023-02-01T15:52:47;16.30;1.00
3976;DHT22;2002;48.812;9.180;2023-02-01T15:57:57;16.10;1.00
3976;DHT22;2002;48.812;9.180;2023-02-01T16:00:25;16.10;1.00
3976;DHT22;2002;48.812;9.180;2023-02-01T16:02:53;16.00;1.00
3976;DHT22;2002;48.812;9.180;2023-02-01T16:05:40;16.00;1.00
3976;DHT22;2002;48.812;9.180;2023-02-01T16:08:22;16.00;1.00
3976;DHT22;2002;48.812;9.180;2023-02-01T16:10:50;15.90;1.00
3976;DHT22;2002;48.812;9.180;2023-02-01T16:13:17;15.90;1.00
3976;DHT22;2002;48.812;9.180;2023-02-01T16:15:43;15.90;1.00
3976;DHT22;2002;48.812;9.180;2023-02-01T16:18:10;15.90;1.00
3976;DHT22;2002;48.812;9.180;2023-02-01T16:20:38;15.90;1.00
3976;DHT22;2002;48.812;9.180;2023-02-01T16:23:05;15.90;1.00
3976;DHT22;2002;48.812;9.180;2023-02-01T16:25:31;15.90;1.00
3976;DHT22;2002;48.812;9.180;2023-02-01T16:27:57;15.80;1.00
3976;DHT22;2002;48.812;9.180;2023-02-01T16:30:22;15.80;1.00
3976;DHT22;2002;48.812;9.180;2023-02-01T16:32:52;15.80;1.00
3976;DHT22;2002;48.812;9.180;2023-02-01T16:35:27;15.80;1.00
3976;DHT22;2002;48.812;9.180;2023-02-01T16:37:54;15.80;1.00
3976;DHT22;2002;48.812;9.180;2023-02-01T16:40:20;15.80;1.00
3976;DHT22;2002;48.812;9.180;2023-02-01T16:42:50;15.80;1.00
3976;DHT22;2002;48.812;9.180;2023-02-01T16:45:15;15.80;1.00
3976;DHT22;2002;48.812;9.180;2023-02-01T16:47:47;15.80;1.00
3976;DHT22;2002;48.812;9.180;2023-02-01T16:50:22;15.80;1.00
3976;DHT22;2002;48.812;9.180;2023-02-01T16:52:48;15.70;1.00
3976;DHT22;2002;48.812;9.180;2023-02-01T16:55:18;15.80;1.00
3976;DHT22;2002;48.812;9.180;2023-02-01T16:57:44;16.10;1.00
3976;DHT22;2002;48.812;9.180;2023-02-01T17:00:11;16.30;1.00
3976;DHT22;2002;48.812;9.180;2023-02-01T17:02:37;16.50;1.00
3976;DHT22;2002;48.812;9.180;2023-02-01T17:05:04;16.60;1.00
3976;DHT22;2002;48.812;9.180;2023-02-01T17:07:29;16.60;1.00
3976;DHT22;2002;48.812;9.180;2023-02-01T17:09:55;16.60;1.00
3976;DHT22;2002;48.812;9.180;2023-02-01T17:14:49;16.50;1.00
3976;DHT22;2002;48.812;9.180;2023-02-01T17:17:16;16.50;1.00
3976;DHT22;2002;48.812;9.180;2023-02-01T17:19:43;16.40;1.00
3976;DHT22;2002;48.812;9.180;2023-02-01T17:22:10;16.40;1.00
3976;DHT22;2002;48.812;9.180;2023-02-01T17:24:35;16.30;1.00
3976;DHT22;2002;48.812;9.180;2023-02-01T17:27:01;16.30;1.00
3976;DHT22;2002;48.812;9.180;2023-02-01T17:29:28;16.20;1.00
3976;DHT22;2002;48.812;9.180;2023-02-01T17:31:55;16.20;1.00
3976;DHT22;2002;48.812;9.180;2023-02-01T17:34:21;16.10;1.00
3976;DHT22;2002;48.812;9.180;2023-02-01T17:36:48;16.10;1.00
3976;DHT22;2002;48.812;9.180;2023-02-01T17:39:16;16.10;1.00
3976;DHT22;2002;48.812;9.180;2023-02-01T17:42:02;16.00;1.00
3976;DHT22;2002;48.812;9.180;2023-02-01T17:44:28;16.00;1.00
3976;DHT22;2002;48.812;9.180;2023-02-01T17:46:53;16.00;1.00
3976;DHT22;2002;48.812;9.180;2023-02-01T17:49:22;15.90;1.00
3976;DHT22;2002;48.812;9.180;2023-02-01T17:51:47;15.90;1.00
3976;DHT22;2002;48.812;9.180;2023-02-01T17:54:15;15.90;1.00
3976;DHT22;2002;48.812;9.180;2023-02-01T17:56:42;15.80;1.00
3976;DHT22;2002;48.812;9.180;2023-02-01T17:59:07;15.90;1.00
3976;DHT22;2002;48.812;9.180;2023-02-01T18:01:33;15.80;1.00
3976;DHT22;2002;48.812;9.180;2023-02-01T18:03:59;15.80;1.00
3976;DHT22;2002;48.812;9.180;2023-02-01T18:06:25;15.80;1.00
3976;DHT22;2002;48.812;9.180;2023-02-01T18:08:51;15.80;1.00
3976;DHT22;2002;48.812;9.180;2023-02-01T18:11:23;15.80;1.00
3976;DHT22;2002;48.812;9.180;2023-02-01T18:13:50;15.70;1.00
3976;DHT22;2002;48.812;9.180;2023-02-01T18:16:23;15.70;1.00
3976;DHT22;2002;48.812;9.180;2023-02-01T18:18:49;15.70;1.00
3976;DHT22;2002;48.812;9.180;2023-02-01T18:21:16;15.80;1.00
3976;DHT22;2002;48.812;9.180;2023-02-01T18:23:42;16.10;1.00
3976;DHT22;2002;48.812;9.180;2023-02-01T18:26:17;16.30;1.00
3976;DHT22;2002;48.812;9.180;2023-02-01T18:28:43;16.40;1.00
3976;DHT22;2002;48.812;9.180;2023-02-01T18:31:24;16.50;1.00
3976;DHT22;2002;48.812;9.180;2023-02-01T18:33:52;16.50;1.00
3976;DHT22;2002;48.812;9.180;2023-02-01T18:36:18;16.50;1.00
3976;DHT22;2002;48.812;9.180;2023-02-01T18:38:44;16.50;1.00